Time;durP1;ratioP1;P1;durP2;ratioP2;P2;SDS_P1;SDS_P2;PMS_P1;PMS_P2;Temp;Humidity;BMP_temperature;BMP_pressure;BME280_temperature;BME280_humidity;BME280_pressure;Samples;Min_cycle;Max_cycle;Signal;HPM_P1;HPM_P2
2023/02/19 00:00:23;;;;;;;2.50;0.57;;;;;;;;;;5035889;28;20059;-64
2023/02/19 00:02:54;;;;;;;2.60;0.68;;;;;;;;;;5071456;28;20052;-63
2023/02/19 00:05:24;;;;;;;3.30;0.80;;;;;;;;;;5071513;28;20052;-63
2023/02/19 00:07:54;;;;;;;1.60;0.70;;;;;;;;;;5071549;28;20032;-63
2023/02/19 00:10:24;;;;;;;1.70;0.52;;;;;;;;;;5036534;28;20060;-63
2023/02/19 00:12:54;;;;;;;1.48;0.75;;;;;;;;;;5053949;28;20420;-63
2023/02/19 00:15:24;;;;;;;2.83;0.52;;;;;;;;;;5054092;28;20048;-63
2023/02/19 00:17:54;;;;;;;2.95;0.75;;;;;;;;;;5071525;28;20044;-63
2023/02/19 00:20:24;;;;;;;6.45;0.88;;;;;;;;;;5035508;28;20523;-63
2023/02/19 00:22:53;;;;;;;2.10;0.82;;;;;;;;;;5035659;28;20049;-63
2023/02/19 00:25:23;;;;;;;7.78;1.10;;;;;;;;;;5070932;28;20492;-63
2023/02/19 00:27:53;;;;;;;2.95;1.23;;;;;;;;;;5071371;28;20044;-64
2023/02/19 00:30:23;;;;;;;3.63;1.30;;;;;;;;;;5017960;28;20049;-64
2023/02/19 00:32:54;;;;;;;2.20;1.10;;;;;;;;;;5052406;28;20174;-64
2023/02/19 00:35:25;;;;;;;4.45;1.13;;;;;;;;;;5002506;28;20463;-64
2023/02/19 00:37:54;;;;;;;1.85;0.68;;;;;;;;;;5002737;28;20064;-64
2023/02/19 00:40:24;;;;;;;2.60;0.80;;;;;;;;;;5036019;28;20049;-63
2023/02/19 00:42:55;;;;;;;4.75;0.52;;;;;;;;;;5052215;28;20045;-64
2023/02/19 00:45:24;;;;;;;13.32;1.15;;;;;;;;;;5051828;28;20057;-64
2023/02/19 00:47:55;;;;;;;2.42;1.30;;;;;;;;;;5031799;28;20412;-64
2023/02/19 00:50:25;;;;;;;2.88;0.60;;;;;;;;;;5008331;28;20544;-64
2023/02/19 00:52:55;;;;;;;2.20;0.50;;;;;;;;;;4960264;28;20062;-64
2023/02/19 00:55:24;;;;;;;4.70;0.95;;;;;;;;;;4973052;28;20066;-65
2023/02/19 00:57:54;;;;;;;2.40;0.60;;;;;;;;;;4953357;28;20055;-64
2023/02/19 01:00:24;;;;;;;1.55;0.70;;;;;;;;;;4953515;28;20484;-64
2023/02/19 01:02:54;;;;;;;1.15;0.75;;;;;;;;;;4968926;28;20523;-64
2023/02/19 01:05:26;;;;;;;2.00;0.50;;;;;;;;;;4921998;28;20070;-64
2023/02/19 01:07:55;;;;;;;1.75;1.00;;;;;;;;;;4953590;28;20086;-64
2023/02/19 01:10:26;;;;;;;2.28;0.68;;;;;;;;;;4953307;28;20051;-64
2023/02/19 01:12:55;;;;;;;2.10;0.57;;;;;;;;;;4953397;28;20070;-65
2023/02/19 01:15:25;;;;;;;4.80;0.90;;;;;;;;;;4953429;28;20173;-64
2023/02/19 01:17:55;;;;;;;2.05;0.50;;;;;;;;;;4953208;28;20059;-64
2023/02/19 01:20:28;;;;;;;8.38;0.80;;;;;;;;;;4953262;29;20051;-64
2023/02/19 01:22:58;;;;;;;2.58;0.68;;;;;;;;;;4920888;28;20055;-65
2023/02/19 01:25:28;;;;;;;2.85;0.63;;;;;;;;;;4930207;28;20066;-64
2023/02/19 01:27:57;;;;;;;3.70;0.93;;;;;;;;;;4990211;28;20058;-64
2023/02/19 01:30:27;;;;;;;2.30;0.63;;;;;;;;;;4972293;28;20054;-64
2023/02/19 01:32:57;;;;;;;4.53;0.93;;;;;;;;;;4965473;28;20058;-64
2023/02/19 01:35:28;;;;;;;5.18;0.90;;;;;;;;;;4975275;28;20066;-64
2023/02/19 01:37:58;;;;;;;2.55;1.10;;;;;;;;;;4975326;28;20506;-64
2023/02/19 01:40:28;;;;;;;2.45;0.85;;;;;;;;;;4971327;28;20043;-64
2023/02/19 01:42:58;;;;;;;7.13;0.90;;;;;;;;;;4943304;28;20066;-64
2023/02/19 01:45:32;;;;;;;3.83;0.75;;;;;;;;;;4972080;28;20043;-64
2023/02/19 01:48:11;;;;;;;3.97;0.88;;;;;;;;;;4971756;28;20561;-64
2023/02/19 01:50:49;;;;;;;3.53;1.20;;;;;;;;;;4972028;28;20059;-63
2023/02/19 01:53:25;;;;;;;2.80;1.05;;;;;;;;;;4952484;29;20062;-63
2023/02/19 01:55:59;;;;;;;2.55;1.00;;;;;;;;;;4905936;29;20095;-63
2023/02/19 01:58:33;;;;;;;4.15;0.85;;;;;;;;;;4895429;29;20048;-63
2023/02/19 02:01:05;;;;;;;3.83;1.00;;;;;;;;;;4864262;29;20527;-63
2023/02/19 02:03:39;;;;;;;4.00;1.33;;;;;;;;;;4879819;29;20060;-64
2023/02/19 02:06:22;;;;;;;3.00;1.05;;;;;;;;;;4894904;29;20069;-64
2023/02/19 02:11:48;;;;;;;4.20;1.33;;;;;;;;;;4914060;29;20070;-64
2023/02/19 02:14:23;;;;;;;2.85;1.27;;;;;;;;;;4914264;29;20079;-64
2023/02/19 02:16:53;;;;;;;7.32;1.02;;;;;;;;;;4898246;29;20056;-64
2023/02/19 02:19:40;;;;;;;7.60;0.95;;;;;;;;;;4876667;29;20056;-64
2023/02/19 02:22:17;;;;;;;7.55;1.83;;;;;;;;;;4895562;29;20066;-64
2023/02/19 02:25:08;;;;;;;5.22;1.45;;;;;;;;;;4897097;29;20048;-63
2023/02/19 02:27:46;;;;;;;6.93;1.27;;;;;;;;;;4914068;29;20052;-63
2023/02/19 02:30:35;;;;;;;7.68;1.45;;;;;;;;;;4902552;29;20052;-63
2023/02/19 02:33:21;;;;;;;2.95;1.42;;;;;;;;;;4932902;29;20066;-63
2023/02/19 02:36:07;;;;;;;4.82;1.85;;;;;;;;;;4925611;29;20056;-64
2023/02/19 02:38:42;;;;;;;4.55;1.30;;;;;;;;;;4913557;29;20056;-64
2023/02/19 02:41:14;;;;;;;3.25;1.45;;;;;;;;;;4916724;29;20514;-64
2023/02/19 02:43:44;;;;;;;7.10;1.67;;;;;;;;;;4913296;29;20539;-64
2023/02/19 02:46:31;;;;;;;4.32;1.48;;;;;;;;;;4932171;29;20052;-64
2023/02/19 02:49:08;;;;;;;5.90;1.77;;;;;;;;;;4932152;29;20098;-64
2023/02/19 02:51:45;;;;;;;5.97;1.95;;;;;;;;;;4881584;29;20044;-64
2023/02/19 02:57:19;;;;;;;6.22;1.67;;;;;;;;;;4897512;29;20044;-63
2023/02/19 02:59:54;;;;;;;11.23;1.88;;;;;;;;;;4913117;29;20059;-64
2023/02/19 03:02:29;;;;;;;3.40;1.48;;;;;;;;;;4895219;29;20064;-64
2023/02/19 03:08:11;;;;;;;5.05;1.60;;;;;;;;;;4872472;29;20056;-65
2023/02/19 03:10:44;;;;;;;8.18;1.73;;;;;;;;;;4893951;29;20056;-64
2023/02/19 03:19:20;;;;;;;6.70;1.75;;;;;;;;;;4856701;29;20061;-63
2023/02/19 03:22:08;;;;;;;2.70;1.25;;;;;;;;;;4856892;29;20057;-64
2023/02/19 03:27:38;;;;;;;7.30;2.05;;;;;;;;;;4857074;29;20062;-64
2023/02/19 03:30:14;;;;;;;8.65;1.70;;;;;;;;;;4873672;29;20546;-64
2023/02/19 03:33:11;;;;;;;4.55;1.80;;;;;;;;;;4888471;29;20546;-64
2023/02/19 03:35:51;;;;;;;3.90;1.48;;;;;;;;;;4886898;29;20064;-64
2023/02/19 03:38:38;;;;;;;5.55;1.50;;;;;;;;;;4893865;29;20057;-64
2023/02/19 03:41:40;;;;;;;3.15;1.20;;;;;;;;;;4893738;29;20053;-64
2023/02/19 03:44:35;;;;;;;4.25;1.52;;;;;;;;;;4893750;29;20528;-64
2023/02/19 03:47:33;;;;;;;4.38;1.83;;;;;;;;;;4893992;29;20048;-64
2023/02/19 03:50:25;;;;;;;4.15;1.70;;;;;;;;;;4912658;29;20543;-64
2023/02/19 03:53:03;;;;;;;3.45;1.20;;;;;;;;;;4880133;29;20045;-64
2023/02/19 03:55:33;;;;;;;5.88;1.67;;;;;;;;;;4874881;29;20072;-64
2023/02/19 03:58:31;;;;;;;7.10;1.98;;;;;;;;;;4893476;29;20413;-63
2023/02/19 04:01:04;;;;;;;5.32;1.45;;;;;;;;;;4893605;29;20060;-63
2023/02/19 04:03:40;;;;;;;5.95;1.60;;;;;;;;;;4912503;29;20101;-63
2023/02/19 04:06:16;;;;;;;5.47;1.85;;;;;;;;;;4915590;29;20059;-63
2023/02/19 04:08:51;;;;;;;4.20;1.88;;;;;;;;;;4899427;29;20052;-63
2023/02/19 04:11:23;;;;;;;7.13;1.63;;;;;;;;;;4908931;29;20060;-64
2023/02/19 04:14:15;;;;;;;4.93;1.40;;;;;;;;;;4897263;29;20520;-64
2023/02/19 04:16:54;;;;;;;3.95;2.10;;;;;;;;;;4897107;29;20056;-63
2023/02/19 04:19:26;;;;;;;4.70;2.13;;;;;;;;;;4897303;29;20060;-63
2023/02/19 04:21:57;;;;;;;4.43;1.80;;;;;;;;;;4896825;29;20064;-63
2023/02/19 04:24:34;;;;;;;6.30;1.77;;;;;;;;;;4897206;29;20067;-63
2023/02/19 04:27:06;;;;;;;5.15;1.48;;;;;;;;;;4905581;29;20067;-63
2023/02/19 04:29:36;;;;;;;11.38;2.28;;;;;;;;;;4901914;29;20700;-63
2023/02/19 04:32:10;;;;;;;5.28;1.70;;;;;;;;;;4907577;29;20084;-63
2023/02/19 04:34:39;;;;;;;3.67;1.48;;;;;;;;;;4899298;29;20052;-63
2023/02/19 04:37:09;;;;;;;9.65;2.10;;;;;;;;;;4942741;29;20551;-63
2023/02/19 04:39:39;;;;;;;5.53;1.63;;;;;;;;;;4969804;28;20518;-63
2023/02/19 04:42:10;;;;;;;4.25;1.60;;;;;;;;;;4954925;28;20072;-63
2023/02/19 04:44:40;;;;;;;9.65;3.00;;;;;;;;;;4995628;28;20057;-63
2023/02/19 04:47:09;;;;;;;4.25;1.95;;;;;;;;;;5010427;28;20168;-63
2023/02/19 04:49:39;;;;;;;6.20;2.53;;;;;;;;;;5051994;28;20516;-64
2023/02/19 04:52:09;;;;;;;8.27;2.70;;;;;;;;;;5033325;28;20055;-63
2023/02/19 04:54:39;;;;;;;10.35;3.78;;;;;;;;;;5074636;28;20044;-63
2023/02/19 04:57:09;;;;;;;5.95;2.40;;;;;;;;;;5038818;28;20052;-63
2023/02/19 04:59:38;;;;;;;9.27;2.83;;;;;;;;;;5057018;28;20045;-63
2023/02/19 05:02:08;;;;;;;6.78;3.30;;;;;;;;;;5074333;28;20384;-63
2023/02/19 05:04:37;;;;;;;6.03;1.98;;;;;;;;;;5038615;28;20496;-63
2023/02/19 05:07:07;;;;;;;5.82;2.08;;;;;;;;;;5073857;28;20067;-63
2023/02/19 05:09:37;;;;;;;8.18;2.05;;;;;;;;;;5074360;28;20067;-63
2023/02/19 05:12:07;;;;;;;6.10;2.05;;;;;;;;;;5073853;28;20040;-63
2023/02/19 05:14:36;;;;;;;6.60;2.67;;;;;;;;;;5038392;28;20052;-63
2023/02/19 05:17:06;;;;;;;9.00;2.80;;;;;;;;;;5073929;28;20435;-63
2023/02/19 05:19:36;;;;;;;8.00;2.53;;;;;;;;;;5074053;28;20040;-64
2023/02/19 05:22:05;;;;;;;5.72;2.35;;;;;;;;;;5054641;28;20060;-63
2023/02/19 05:24:35;;;;;;;8.02;2.55;;;;;;;;;;5073591;28;20037;-64
2023/02/19 05:27:05;;;;;;;5.32;2.40;;;;;;;;;;5073715;28;20053;-64
2023/02/19 05:29:35;;;;;;;7.15;2.58;;;;;;;;;;5073779;28;20389;-64
2023/02/19 05:32:05;;;;;;;6.63;2.20;;;;;;;;;;5056277;28;20037;-64
2023/02/19 05:34:36;;;;;;;4.90;2.40;;;;;;;;;;5037949;28;20056;-64
2023/02/19 05:37:05;;;;;;;8.25;2.75;;;;;;;;;;5054643;28;20048;-64
2023/02/19 05:39:35;;;;;;;6.00;2.63;;;;;;;;;;5054730;28;20065;-64
2023/02/19 05:42:05;;;;;;;7.15;2.40;;;;;;;;;;5073122;28;20044;-64
2023/02/19 05:44:34;;;;;;;5.88;2.33;;;;;;;;;;5037734;28;20056;-63
2023/02/19 05:47:04;;;;;;;5.28;2.03;;;;;;;;;;5073364;28;20085;-63
2023/02/19 05:49:34;;;;;;;4.70;2.05;;;;;;;;;;5038453;28;20049;-63
2023/02/19 05:52:04;;;;;;;6.28;2.72;;;;;;;;;;5021695;28;20057;-64
2023/02/19 05:54:34;;;;;;;4.45;1.90;;;;;;;;;;5021492;28;20053;-64
2023/02/19 05:57:03;;;;;;;7.80;2.08;;;;;;;;;;5073355;28;20503;-65
2023/02/19 05:59:33;;;;;;;4.25;1.80;;;;;;;;;;5073244;28;20049;-64
2023/02/19 06:02:02;;;;;;;8.23;1.60;;;;;;;;;;5004515;28;20067;-64
2023/02/19 06:04:32;;;;;;;3.53;1.63;;;;;;;;;;5072952;28;20048;-63
2023/02/19 06:07:02;;;;;;;3.72;1.33;;;;;;;;;;5073070;28;20067;-63
2023/02/19 06:09:32;;;;;;;4.40;1.65;;;;;;;;;;5072921;28;20037;-65
2023/02/19 06:12:01;;;;;;;5.82;1.98;;;;;;;;;;5054224;28;20110;-63
2023/02/19 06:14:31;;;;;;;6.70;1.55;;;;;;;;;;5053909;28;20073;-63
2023/02/19 06:17:00;;;;;;;6.10;1.90;;;;;;;;;;5037673;28;20095;-64
2023/02/19 06:19:30;;;;;;;4.03;1.70;;;;;;;;;;5072590;28;20045;-63
2023/02/19 06:22:00;;;;;;;4.50;1.70;;;;;;;;;;5072579;28;20531;-64
2023/02/19 06:24:29;;;;;;;8.32;1.63;;;;;;;;;;5072218;28;20048;-64
2023/02/19 06:26:59;;;;;;;4.32;1.55;;;;;;;;;;5009662;28;20053;-64
2023/02/19 06:29:31;;;;;;;3.35;1.48;;;;;;;;;;4994386;28;20058;-63
2023/02/19 06:32:02;;;;;;;4.80;1.25;;;;;;;;;;4977742;28;20545;-64
2023/02/19 06:34:32;;;;;;;5.30;1.50;;;;;;;;;;4977835;28;20062;-64
2023/02/19 06:37:02;;;;;;;9.55;1.70;;;;;;;;;;5010470;28;20058;-64
2023/02/19 06:39:32;;;;;;;2.97;1.40;;;;;;;;;;4993800;28;20065;-63
2023/02/19 06:42:02;;;;;;;4.18;1.70;;;;;;;;;;5010372;28;20054;-63
2023/02/19 06:44:33;;;;;;;2.67;1.27;;;;;;;;;;4993654;28;20054;-64
2023/02/19 06:47:02;;;;;;;6.10;2.30;;;;;;;;;;4977726;28;20069;-63
2023/02/19 06:49:32;;;;;;;3.22;1.38;;;;;;;;;;5010271;28;20061;-63
2023/02/19 06:52:03;;;;;;;4.07;1.70;;;;;;;;;;5010437;28;20068;-64
2023/02/19 06:54:33;;;;;;;6.80;1.55;;;;;;;;;;4993542;28;20064;-64
2023/02/19 06:57:03;;;;;;;6.43;1.65;;;;;;;;;;4996923;28;20050;-64
2023/02/19 06:59:32;;;;;;;3.95;1.55;;;;;;;;;;5003674;28;20064;-64
2023/02/19 07:02:02;;;;;;;3.08;1.50;;;;;;;;;;5072230;28;20045;-65
2023/02/19 07:04:32;;;;;;;3.90;1.50;;;;;;;;;;5036389;28;20407;-64
2023/02/19 07:07:01;;;;;;;5.30;2.10;;;;;;;;;;5036332;28;20416;-64
2023/02/19 07:09:32;;;;;;;2.97;1.50;;;;;;;;;;5071805;28;20496;-64
2023/02/19 07:12:02;;;;;;;3.42;1.30;;;;;;;;;;5053250;28;20067;-64
2023/02/19 07:14:32;;;;;;;3.88;1.50;;;;;;;;;;5037524;28;20067;-64
2023/02/19 07:17:02;;;;;;;6.07;3.75;;;;;;;;;;5071987;28;20488;-64
2023/02/19 07:19:32;;;;;;;3.60;1.63;;;;;;;;;;5071854;28;20484;-64
2023/02/19 07:22:01;;;;;;;5.35;1.75;;;;;;;;;;5028935;28;20049;-64
2023/02/19 07:24:31;;;;;;;5.95;1.73;;;;;;;;;;5029352;28;20056;-65
2023/02/19 07:27:01;;;;;;;2.97;1.52;;;;;;;;;;4981856;28;20062;-64
2023/02/19 07:29:30;;;;;;;6.65;1.38;;;;;;;;;;5013250;28;20072;-64
2023/02/19 07:32:00;;;;;;;4.30;1.42;;;;;;;;;;5029624;28;20208;-64
2023/02/19 07:34:29;;;;;;;7.60;1.48;;;;;;;;;;5012789;28;20065;-64
2023/02/19 07:37:00;;;;;;;6.45;1.83;;;;;;;;;;5009370;28;20073;-64
2023/02/19 07:39:29;;;;;;;4.43;1.80;;;;;;;;;;5012579;28;20134;-64
2023/02/19 07:41:59;;;;;;;9.48;3.28;;;;;;;;;;5013345;28;20509;-64
2023/02/19 07:44:32;;;;;;;11.23;4.03;;;;;;;;;;5013271;28;20493;-64
2023/02/19 07:47:02;;;;;;;10.38;4.40;;;;;;;;;;4980998;28;20054;-64
2023/02/19 07:49:32;;;;;;;8.27;3.53;;;;;;;;;;5013467;28;20076;-64
2023/02/19 07:52:02;;;;;;;9.02;3.70;;;;;;;;;;4980698;28;20065;-64
2023/02/19 07:54:31;;;;;;;8.65;4.07;;;;;;;;;;4981688;28;20125;-64
2023/02/19 07:57:01;;;;;;;6.88;2.75;;;;;;;;;;5013283;28;20062;-64
2023/02/19 07:59:31;;;;;;;4.20;2.03;;;;;;;;;;4997414;28;20061;-64
2023/02/19 08:04:49;;;;;;;4.30;2.00;;;;;;;;;;4972982;28;20080;-63
2023/02/19 08:07:19;;;;;;;2.63;1.30;;;;;;;;;;5013135;28;20050;-64
2023/02/19 08:13:18;;;;;;;3.05;1.35;;;;;;;;;;4981160;28;20053;-64
2023/02/19 08:15:26;;;;;;;6.00;1.63;;;;;;;;;;5012797;28;20064;-65
2023/02/19 08:17:56;;;;;;;5.15;1.60;;;;;;;;;;5016442;28;20050;-64
2023/02/19 08:20:26;;;;;;;4.95;2.22;;;;;;;;;;5015862;28;20061;-64
2023/02/19 08:22:55;;;;;;;6.50;2.20;;;;;;;;;;5048595;28;20057;-64
2023/02/19 08:25:25;;;;;;;4.85;1.90;;;;;;;;;;5074770;28;20077;-64
2023/02/19 08:27:55;;;;;;;4.85;1.73;;;;;;;;;;5040070;28;20057;-64
2023/02/19 08:30:28;;;;;;;3.22;1.80;;;;;;;;;;5039339;28;20056;-65
2023/02/19 08:33:00;;;;;;;4.43;1.75;;;;;;;;;;5074824;28;20041;-63
2023/02/19 08:35:30;;;;;;;5.85;1.45;;;;;;;;;;5023056;28;20060;-63
2023/02/19 08:38:01;;;;;;;5.55;1.63;;;;;;;;;;5022967;28;20053;-64
2023/02/19 08:40:32;;;;;;;3.97;1.70;;;;;;;;;;5074499;28;20044;-64
2023/02/19 08:43:11;;;;;;;3.33;1.33;;;;;;;;;;5057238;28;20056;-64
2023/02/19 08:45:43;;;;;;;7.07;1.63;;;;;;;;;;5023420;28;20512;-64
2023/02/19 08:48:13;;;;;;;2.90;1.35;;;;;;;;;;4990413;28;20396;-64
2023/02/19 08:50:43;;;;;;;5.68;1.80;;;;;;;;;;5022022;28;20056;-63
2023/02/19 08:53:13;;;;;;;3.65;1.80;;;;;;;;;;5055664;28;20048;-64
2023/02/19 08:55:42;;;;;;;6.30;2.45;;;;;;;;;;5039746;28;20073;-65
2023/02/19 08:58:13;;;;;;;7.75;2.33;;;;;;;;;;5055648;28;20045;-65
2023/02/19 09:00:43;;;;;;;7.18;2.20;;;;;;;;;;5038942;28;20064;-64
2023/02/19 09:03:12;;;;;;;7.57;2.72;;;;;;;;;;5038738;28;20056;-64
2023/02/19 09:05:43;;;;;;;6.55;3.05;;;;;;;;;;5074370;28;20048;-64
2023/02/19 09:08:14;;;;;;;8.00;3.20;;;;;;;;;;5051683;28;20045;-64
2023/02/19 09:10:44;;;;;;;6.30;2.80;;;;;;;;;;5051582;28;20057;-64
2023/02/19 09:13:14;;;;;;;7.47;2.88;;;;;;;;;;5051651;28;20061;-64
2023/02/19 09:15:45;;;;;;;7.32;3.20;;;;;;;;;;5034687;28;20049;-63
2023/02/19 09:18:14;;;;;;;7.40;3.00;;;;;;;;;;5034863;28;20041;-63
2023/02/19 09:20:44;;;;;;;6.63;2.90;;;;;;;;;;5050903;28;20056;-64
2023/02/19 09:23:14;;;;;;;6.60;2.40;;;;;;;;;;5019019;28;20052;-64
2023/02/19 09:25:44;;;;;;;8.45;3.13;;;;;;;;;;5051192;28;20048;-64
2023/02/19 09:28:15;;;;;;;9.23;2.78;;;;;;;;;;5034754;28;20056;-63
2023/02/19 09:30:45;;;;;;;7.50;2.28;;;;;;;;;;5051392;28;20148;-63
2023/02/19 09:33:16;;;;;;;7.65;2.47;;;;;;;;;;5035031;28;20516;-64
2023/02/19 09:35:46;;;;;;;4.43;2.10;;;;;;;;;;5018174;28;20064;-64
2023/02/19 09:38:16;;;;;;;5.43;2.20;;;;;;;;;;5017740;28;20532;-64
2023/02/19 09:40:45;;;;;;;8.95;2.30;;;;;;;;;;5003059;28;20060;-64
2023/02/19 09:43:20;;;;;;;6.85;1.83;;;;;;;;;;5050968;28;20045;-64
2023/02/19 09:46:01;;;;;;;5.20;1.83;;;;;;;;;;5061809;28;20052;-64
2023/02/19 09:48:31;;;;;;;8.27;2.33;;;;;;;;;;5055046;28;20512;-63
2023/02/19 09:51:03;;;;;;;5.00;1.85;;;;;;;;;;5073159;28;20056;-64
2023/02/19 09:53:41;;;;;;;5.50;2.20;;;;;;;;;;5004871;28;20043;-64
2023/02/19 09:56:11;;;;;;;4.47;2.22;;;;;;;;;;5038650;28;20715;-64
2023/02/19 09:58:48;;;;;;;6.43;2.20;;;;;;;;;;5005191;28;20056;-64
2023/02/19 10:01:18;;;;;;;6.28;2.20;;;;;;;;;;5073068;28;20048;-64
2023/02/19 10:03:48;;;;;;;6.20;1.80;;;;;;;;;;5054280;28;20072;-64
2023/02/19 10:06:28;;;;;;;8.88;2.15;;;;;;;;;;5034643;28;20071;-64
2023/02/19 10:09:33;;;;;;;5.47;2.25;;;;;;;;;;5052924;28;20048;-64
2023/02/19 10:12:14;;;;;;;6.85;3.28;;;;;;;;;;4991449;28;20450;-64
2023/02/19 10:14:48;;;;;;;7.68;2.85;;;;;;;;;;4991217;28;20065;-63
2023/02/19 10:17:33;;;;;;;8.05;2.80;;;;;;;;;;4991369;28;20062;-64
2023/02/19 10:20:04;;;;;;;7.68;3.15;;;;;;;;;;4974462;28;20050;-64
2023/02/19 10:22:36;;;;;;;7.45;3.22;;;;;;;;;;4990851;28;20079;-65
2023/02/19 10:25:07;;;;;;;6.88;2.88;;;;;;;;;;4991032;28;20550;-64
2023/02/19 10:27:37;;;;;;;4.57;2.15;;;;;;;;;;4943704;28;20054;-64
2023/02/19 10:30:11;;;;;;;5.70;2.95;;;;;;;;;;4990781;28;20526;-64
2023/02/19 10:32:59;;;;;;;8.18;3.50;;;;;;;;;;4991131;28;20511;-64
2023/02/19 10:35:30;;;;;;;6.20;2.58;;;;;;;;;;4990956;28;20069;-64
2023/02/19 10:38:02;;;;;;;6.50;3.40;;;;;;;;;;4991166;28;20414;-64
2023/02/19 10:40:33;;;;;;;6.28;2.85;;;;;;;;;;4942989;28;20050;-64
2023/02/19 10:43:04;;;;;;;7.10;3.10;;;;;;;;;;4943634;28;20058;-64
2023/02/19 10:45:39;;;;;;;6.03;2.45;;;;;;;;;;5006797;28;20060;-63
2023/02/19 10:48:23;;;;;;;5.97;2.53;;;;;;;;;;5052227;28;20041;-64
2023/02/19 10:50:58;;;;;;;4.65;2.17;;;;;;;;;;5033858;28;20065;-64
2023/02/19 10:53:45;;;;;;;5.75;2.13;;;;;;;;;;5052205;28;20519;-64
2023/02/19 10:56:23;;;;;;;4.68;2.53;;;;;;;;;;5016952;28;20583;-64
2023/02/19 10:58:54;;;;;;;4.13;1.63;;;;;;;;;;5034915;28;20528;-64
2023/02/19 11:01:28;;;;;;;5.50;2.30;;;;;;;;;;5052018;28;20484;-64
2023/02/19 11:04:16;;;;;;;6.53;1.67;;;;;;;;;;5051903;28;20041;-64
2023/02/19 11:06:47;;;;;;;5.78;1.88;;;;;;;;;;5049621;28;20052;-64
2023/02/19 11:09:38;;;;;;;4.93;1.70;;;;;;;;;;5051961;28;20051;-64
2023/02/19 11:12:09;;;;;;;2.78;1.70;;;;;;;;;;5051797;28;20481;-64
2023/02/19 11:14:44;;;;;;;3.30;1.40;;;;;;;;;;5051769;28;20045;-64
2023/02/19 11:17:27;;;;;;;3.00;1.20;;;;;;;;;;5051806;28;20048;-64
2023/02/19 11:20:14;;;;;;;4.97;1.10;;;;;;;;;;5049780;28;20049;-64
2023/02/19 11:22:45;;;;;;;5.15;1.23;;;;;;;;;;5033753;28;20409;-64
2023/02/19 11:25:16;;;;;;;2.78;1.15;;;;;;;;;;5049399;28;20053;-64
2023/02/19 11:28:18;;;;;;;3.65;1.13;;;;;;;;;;5051875;28;20489;-64
2023/02/19 11:30:49;;;;;;;3.75;1.70;;;;;;;;;;5051619;28;20060;-64
2023/02/19 11:33:26;;;;;;;4.93;1.85;;;;;;;;;;5051900;28;20052;-63
2023/02/19 11:36:15;;;;;;;4.38;1.50;;;;;;;;;;5051653;28;20045;-64
2023/02/19 11:38:45;;;;;;;3.05;1.50;;;;;;;;;;5051694;28;20049;-64
2023/02/19 11:41:15;;;;;;;4.65;1.67;;;;;;;;;;5051655;28;20396;-63
2023/02/19 11:43:55;;;;;;;3.35;1.42;;;;;;;;;;5051742;28;20380;-64
2023/02/19 11:46:45;;;;;;;7.20;1.88;;;;;;;;;;5051760;28;20052;-63
2023/02/19 11:49:28;;;;;;;21.20;9.27;;;;;;;;;;5049519;28;20114;-63
2023/02/19 11:52:32;;;;;;;21.88;9.82;;;;;;;;;;5051588;28;20507;-64
2023/02/19 11:55:33;;;;;;;3.45;1.90;;;;;;;;;;5032846;28;20053;-64
2023/02/19 11:58:28;;;;;;;6.15;2.10;;;;;;;;;;4989692;28;20051;-64
2023/02/19 12:01:31;;;;;;;3.10;1.27;;;;;;;;;;4989745;28;20050;-63
2023/02/19 12:04:25;;;;;;;3.83;1.55;;;;;;;;;;4973716;28;20054;-63
2023/02/19 12:07:06;;;;;;;4.70;1.63;;;;;;;;;;4989631;28;20097;-64
2023/02/19 12:09:59;;;;;;;5.22;1.60;;;;;;;;;;4973774;28;20392;-65
2023/02/19 12:12:56;;;;;;;2.35;1.30;;;;;;;;;;4989780;28;20054;-64
2023/02/19 12:15:42;;;;;;;2.22;1.15;;;;;;;;;;4989907;28;20070;-65
2023/02/19 12:18:31;;;;;;;2.42;1.15;;;;;;;;;;4973486;28;20046;-65
2023/02/19 12:21:12;;;;;;;3.38;1.60;;;;;;;;;;4989332;28;20530;-65
2023/02/19 12:24:24;;;;;;;3.05;1.17;;;;;;;;;;4989810;28;20077;-65
2023/02/19 12:26:57;;;;;;;4.90;1.60;;;;;;;;;;4993065;28;20073;-65
2023/02/19 12:29:39;;;;;;;3.33;1.30;;;;;;;;;;4993270;28;20066;-66
2023/02/19 12:32:26;;;;;;;4.75;1.48;;;;;;;;;;4993493;28;20046;-65
2023/02/19 12:35:11;;;;;;;6.20;1.60;;;;;;;;;;5025353;28;20092;-65
2023/02/19 12:38:10;;;;;;;4.88;1.80;;;;;;;;;;5054821;28;20067;-66
2023/02/19 12:41:11;;;;;;;4.82;1.88;;;;;;;;;;5036136;28;20068;-65
2023/02/19 12:44:11;;;;;;;3.97;1.40;;;;;;;;;;5036691;28;20049;-65
2023/02/19 12:46:48;;;;;;;3.30;1.52;;;;;;;;;;5054633;28;20489;-65
2023/02/19 12:49:24;;;;;;;4.10;1.30;;;;;;;;;;5054633;28;20558;-64
2023/02/19 12:52:02;;;;;;;3.60;1.30;;;;;;;;;;5052313;28;20085;-65
2023/02/19 12:54:43;;;;;;;2.30;1.30;;;;;;;;;;5035764;28;20055;-65
2023/02/19 12:57:26;;;;;;;4.18;1.88;;;;;;;;;;5054573;28;20048;-65
2023/02/19 13:00:02;;;;;;;3.38;1.40;;;;;;;;;;5054352;28;20048;-65
2023/02/19 13:02:48;;;;;;;3.55;1.23;;;;;;;;;;5054399;28;20041;-64
2023/02/19 13:05:58;;;;;;;3.63;1.33;;;;;;;;;;5054329;28;20047;-65
2023/02/19 13:08:48;;;;;;;4.53;1.42;;;;;;;;;;4940888;28;20070;-64
2023/02/19 13:11:42;;;;;;;1.85;0.93;;;;;;;;;;4940517;28;20043;-64
2023/02/19 13:14:41;;;;;;;3.35;1.45;;;;;;;;;;4925028;28;20081;-64
2023/02/19 13:17:23;;;;;;;2.75;1.45;;;;;;;;;;4973193;28;20108;-65
2023/02/19 13:19:59;;;;;;;3.33;1.10;;;;;;;;;;4956305;28;20051;-64
2023/02/19 13:26:01;;;;;;;3.92;1.52;;;;;;;;;;4972493;28;20055;-64
2023/02/19 13:28:48;;;;;;;2.75;1.23;;;;;;;;;;4972712;28;20051;-64
2023/02/19 13:31:56;;;;;;;1.55;0.73;;;;;;;;;;4972790;28;20050;-64
2023/02/19 13:34:42;;;;;;;4.65;1.60;;;;;;;;;;4972788;28;20387;-65
2023/02/19 13:37:13;;;;;;;4.53;1.13;;;;;;;;;;4971207;28;20054;-65
2023/02/19 13:39:51;;;;;;;3.13;1.10;;;;;;;;;;4972354;28;20070;-66
2023/02/19 13:42:33;;;;;;;4.05;1.13;;;;;;;;;;4972226;28;20059;-66
2023/02/19 13:45:05;;;;;;;2.88;0.90;;;;;;;;;;4963625;28;20065;-65
2023/02/19 13:47:53;;;;;;;2.17;1.17;;;;;;;;;;5011318;28;20137;-65
2023/02/19 13:50:30;;;;;;;1.83;1.00;;;;;;;;;;5011373;28;20166;-66
2023/02/19 13:53:21;;;;;;;4.07;1.00;;;;;;;;;;4994768;28;20066;-65
2023/02/19 13:55:52;;;;;;;3.45;1.05;;;;;;;;;;5011035;28;20069;-66
2023/02/19 13:58:36;;;;;;;4.63;1.20;;;;;;;;;;4978603;28;20054;-65
2023/02/19 14:01:08;;;;;;;3.67;0.98;;;;;;;;;;4994791;28;20061;-65
2023/02/19 14:03:46;;;;;;;2.72;1.20;;;;;;;;;;5029406;28;20053;-65
2023/02/19 14:06:16;;;;;;;4.75;1.50;;;;;;;;;;5017581;28;20060;-65
2023/02/19 14:08:51;;;;;;;1.65;1.10;;;;;;;;;;5000904;28;20052;-65
2023/02/19 14:11:46;;;;;;;1.90;1.20;;;;;;;;;;5050663;28;20748;-66
2023/02/19 14:14:25;;;;;;;7.40;2.85;;;;;;;;;;5050411;28;20045;-65
2023/02/19 14:17:03;;;;;;;2.60;1.75;;;;;;;;;;4991042;28;20050;-66
2023/02/19 14:19:42;;;;;;;3.45;1.25;;;;;;;;;;4991153;28;20061;-66
2023/02/19 14:25:27;;;;;;;3.85;1.55;;;;;;;;;;4958599;28;20046;-65
2023/02/19 14:28:21;;;;;;;2.72;0.90;;;;;;;;;;4958847;28;20054;-65
2023/02/19 14:30:55;;;;;;;2.00;1.20;;;;;;;;;;4986248;28;20057;-65
2023/02/19 14:33:28;;;;;;;3.88;1.67;;;;;;;;;;4920597;28;20065;-64
2023/02/19 14:36:24;;;;;;;3.33;1.77;;;;;;;;;;4976826;28;20050;-65
2023/02/19 14:39:10;;;;;;;4.22;1.90;;;;;;;;;;4960779;28;20148;-65
2023/02/19 14:41:46;;;;;;;2.42;1.00;;;;;;;;;;5016778;28;20161;-64
2023/02/19 14:44:25;;;;;;;3.83;1.45;;;;;;;;;;4980637;28;20060;-65
2023/02/19 14:47:07;;;;;;;2.40;1.10;;;;;;;;;;5029908;28;20045;-65
2023/02/19 14:49:47;;;;;;;2.08;1.08;;;;;;;;;;5023343;28;20126;-66
2023/02/19 14:52:23;;;;;;;2.35;1.17;;;;;;;;;;5025809;28;20053;-65
2023/02/19 14:55:00;;;;;;;5.47;2.35;;;;;;;;;;5047933;28;20110;-66
2023/02/19 14:57:38;;;;;;;4.32;1.67;;;;;;;;;;5016779;28;20409;-65
2023/02/19 15:00:38;;;;;;;3.72;1.45;;;;;;;;;;5016874;28;20463;-65
2023/02/19 15:03:36;;;;;;;5.07;1.02;;;;;;;;;;5015194;28;20048;-65
2023/02/19 15:06:18;;;;;;;2.42;0.90;;;;;;;;;;5024026;28;20041;-65
2023/02/19 15:08:55;;;;;;;2.75;0.90;;;;;;;;;;4989510;28;20053;-65
2023/02/19 15:11:27;;;;;;;2.38;1.13;;;;;;;;;;5008420;28;20453;-65
2023/02/19 15:14:04;;;;;;;;;;;;;;;;;;4983298;28;20048;-66
2023/02/19 15:16:35;;;;;;;2.65;0.80;;;;;;;;;;5006241;28;19944;-65
2023/02/19 15:19:08;;;;;;;0.90;0.60;;;;;;;;;;5009426;28;20491;-65
2023/02/19 15:21:43;;;;;;;4.25;1.10;;;;;;;;;;4991820;28;20065;-65
2023/02/19 15:24:16;;;;;;;4.50;1.25;;;;;;;;;;4994001;28;20053;-64
2023/02/19 15:26:52;;;;;;;1.40;0.82;;;;;;;;;;4957107;28;20050;-65
2023/02/19 15:29:25;;;;;;;2.05;0.80;;;;;;;;;;4987285;28;20155;-65
2023/02/19 15:32:00;;;;;;;2.15;0.85;;;;;;;;;;4933696;28;20062;-66
2023/02/19 15:34:31;;;;;;;2.53;1.17;;;;;;;;;;4895914;28;20053;-66
2023/02/19 15:37:08;;;;;;;1.42;0.90;;;;;;;;;;4987192;28;20054;-65
2023/02/19 15:39:43;;;;;;;2.15;0.90;;;;;;;;;;4952659;28;20047;-65
2023/02/19 15:42:28;;;;;;;2.47;0.90;;;;;;;;;;4961769;28;20105;-66
2023/02/19 15:45:19;;;;;;;2.80;1.10;;;;;;;;;;4981092;28;20047;-65
2023/02/19 15:47:54;;;;;;;1.00;0.68;;;;;;;;;;4980508;28;20055;-66
2023/02/19 15:50:35;;;;;;;1.77;1.13;;;;;;;;;;4982374;28;20429;-66
2023/02/19 15:53:13;;;;;;;0.95;0.52;;;;;;;;;;4972942;28;20054;-65
2023/02/19 15:55:42;;;;;;;;;;;;;;;;;;4942463;28;20057;-65
2023/02/19 15:58:20;;;;;;;1.10;0.70;;;;;;;;;;4989767;28;19928;-66
2023/02/19 16:00:55;;;;;;;1.70;0.80;;;;;;;;;;4989648;28;20094;-66
2023/02/19 16:03:27;;;;;;;4.03;1.00;;;;;;;;;;4993580;28;20054;-65